Murska Sobota, Slovenia

11:30 PM CEST on August 30, 2014 (GMT +0200)
Puconci | Change Station
CLOSE
Current Station
Personal Weather Station
Location: Puconci,
Elevation: 702 ft
Nearby Weather Stations

Elev 702 ft 46.71 °N, 16.15 °E | Updated 6 seconds ago

Rain Showers
Showers Rain
62.8 °F
Feels Like 62.8 °F
N
0.9
Wind Variable Wind from WSW
Gusts 2.5 mph

Today
High -- | Low -- °F
--% Chance of Precip.
Yesterday
High -- | Low -- °F
Precip. -- in
6:12 AM 7:38 PM
Waxing Crescent, 24% visible
Pressure 30.09 in
Visibility 4.3 miles
Clouds Few 3500 ft
Few 4000 ft
Scattered Clouds 4500 ft
Mostly Cloudy 7000 ft
Dew Point 60 °F
Humidity 90%
Rainfall 0.00 in
Snow Depth Not available.
UV 0.0 out of 12
Pollen Not available.
Air Quality Not available.
Flu Activity Not available.
METAR LOWG 302120Z 32004KT 7000 SHRA FEW035 FEW040TCU SCT045 BKN070 18/17 Q1019 TEMPO -SHRA

More Conditions Fewer Conditions

Pressure 30.09 in
Visibility 4.3 miles
Clouds Few 3500 ft
Few 4000 ft
Scattered Clouds 4500 ft
Mostly Cloudy 7000 ft
Dew Point 60 °F
Humidity 90%
Rainfall 0.00 in
Snow Depth Not available.
UV 0.0 out of 12
Pollen Not available.
Air Quality Not available.
Flu Activity Not available.
METAR LOWG 302120Z 32004KT 7000 SHRA FEW035 FEW040TCU SCT045 BKN070 18/17 Q1019 TEMPO -SHRA

More Conditions Fewer Conditions

10-Day Weather Forecast

Almanac

Astronomy

Aug. 30, 2014 Rise Set
Actual Time 6:12 AM CEST 7:38 PM CEST
Civil Twilight 5:40 AM CEST 8:10 PM CEST
Nautical Twilight 5:02 AM CEST 8:48 PM CEST
Astronomical Twilight 4:21 AM CEST 9:29 PM CEST
Moon 11:01 AM CEST 9:42 PM CEST
Length of Visible Light 14h 29m
Length of Day
13h 26m
Tomorrow will be 3m 11s shorter.
Waxing Crescent, 24% of the Moon is Illuminated
Today
Waxing Crescent
Sep 2
First Quarter
Sep 8
Full
Sep 15
Last Quarter
Sep 24
New

Today's Extremes

Country Highs Country Lows

Community

WunderPhotos

Upload Photos

1,748,647 photos uploaded!

WunderBlogs® & News

Nearby

Snow Depth

Not available.

Earthquake Activity

City Distance Mag. Time & Date
No recent earthquake activity has been reported nearby.
Minimum magnitude displayed is 2.5.

Coastal Water Temperatures

Place Temperature
No Stations Reporting

Nearby Weather Stations